ADDS METAR Data INFO
IDs: Format: Raw Decoded Include TAF

Data at: 1558 UTC 12 Dec 2017

KWMC 121556Z AUTO 00000KT 10SM CLR M13/M17 A3059 RMK AO2 SLP417 T11331172
KWMC 121456Z AUTO 00000KT 10SM CLR M15/M18 A3057 RMK AO2 SLP414 T11501178 53003
KWMC 121356Z AUTO 14006KT 10SM CLR M14/M18 A3056 RMK AO2 SLP403 T11441178
KWMC 121256Z AUTO 00000KT 10SM CLR M14/M17 A3057 RMK AO2 SLP399 T11391167
KWMC 121156Z AUTO 17006KT 10SM CLR M15/M18 A3056 RMK AO2 SLP384 T11501178 11100 21167 51001
KWMC 121056Z AUTO 19003KT 10SM CLR M17/M19 A3056 RMK AO2 SLP384 T11671194
KWMC 120956Z AUTO 00000KT 10SM CLR M14/M18 A3057 RMK AO2 SLP385 T11441178
KWMC 120856Z AUTO 13003KT 10SM CLR M14/M17 A3056 RMK AO2 SLP381 T11391167 58001
KWMC 120756Z AUTO 15004KT 10SM CLR M13/M16 A3057 RMK AO2 SLP387 T11331161 400781150
KWMC 120656Z AUTO 14005KT 10SM CLR M12/M14 A3056 RMK AO2 SLP388 T11171139
KWMC 120456Z AUTO 17006KT 10SM CLR M09/M12 A3055 RMK AO2 SLP392 T10941117
KWMC 120356Z AUTO 15004KT 10SM CLR M09/M12 A3054 RMK AO2 SLP399 T10891117
KWMC 120256Z AUTO 14005KT 10SM CLR M08/M12 A3053 RMK AO2 SLP396 T10831117 53009
KWMC 120156Z AUTO 00000KT 10SM CLR M06/M11 A3051 RMK AO2 SLP387 T10611111
KWMC 120056Z AUTO 27005KT 10SM CLR M03/M10 A3051 RMK AO2 SLP376 T10281100
KWMC 112356Z AUTO 00000KT 10SM CLR 06/M08 A3050 RMK AO2 SLP357 T00611078 10078 21022 55005
KWMC 112256Z AUTO 00000KT 10SM CLR 07/M07 A3049 RMK AO2 SLP352 T00721072
KWMC 112156Z AUTO 00000KT 10SM CLR 07/M07 A3050 RMK AO2 SLP356 T00671072
KWMC 112056Z AUTO 00000KT 10SM CLR 06/M07 A3051 RMK AO2 SLP361 T00561072 58016
KWMC 111956Z AUTO 35003KT 10SM CLR 03/M07 A3054 RMK AO2 SLP374 T00331072
KWMC 111856Z AUTO 00000KT 10SM CLR 01/M07 A3055 RMK AO2 SLP383 T00061072
KWMC 111756Z AUTO 00000KT 10SM CLR M03/M09 A3057 RMK AO2 SLP390 I6000 T10281089 11028 21150 51007
KWMC 111656Z AUTO 00000KT 10SM CLR M07/M11 A3057 RMK AO2 SLP397 T10721111
KWMC 111556Z AUTO 00000KT 10SM CLR M13/M16 A3056 RMK AO2 SLP400 I1000 T11281156
KWMC 111456Z AUTO 11003KT 10SM CLR M14/M17 A3055 RMK AO2 SLP398 T11391172 53009
KWMC 111356Z AUTO 14004KT 10SM CLR M14/M17 A3053 RMK AO2 SLP393 T11441172
KWMC 111256Z AUTO 00000KT 10SM CLR M13/M16 A3052 RMK AO2 SLP378 T11331161
KWMC 111156Z AUTO 12003KT 10SM CLR M13/M17 A3051 RMK AO2 SLP365 T11331167 11083 21139 58000
KWMC 111056Z AUTO 14005KT 10SM CLR M13/M16 A3052 RMK AO2 SLP362 T11331161
KWMC 110956Z AUTO 00000KT 10SM CLR M13/M16 A3052 RMK AO2 SLP362 T11281156
KWMC 110856Z AUTO 14003KT 10SM CLR M11/M14 A3051 RMK AO2 SLP361 T11111144 58000
KWMC 110756Z AUTO 13003KT 10SM CLR M12/M14 A3052 RMK AO2 SLP365 T11171144 400781144
KWMC 110656Z AUTO 00000KT 10SM CLR M11/M14 A3052 RMK AO2 SLP370 T11111139
KWMC 110556Z AUTO 00000KT 10SM CLR M08/M11 A3052 RMK AO2 SLP367 T10831111 10061 21089 53006
KWMC 110456Z AUTO 10005KT 10SM CLR M08/M11 A3050 RMK AO2 SLP373 T10831111